Time;durP1;ratioP1;P1;durP2;ratioP2;P2;SDS_P1;SDS_P2;PMS_P1;PMS_P2;Temp;Humidity;BMP_temperature;BMP_pressure;BME280_temperature;BME280_humidity;BME280_pressure;Samples;Min_cycle;Max_cycle;Signal;HPM_P1;HPM_P2
2023/12/01 00:00:34;;;;;;;34.15;16.50;;;9.40;99.90;;;;;;7405233;19;20011;-72
2023/12/01 00:03:02;;;;;;;34.60;16.73;;;9.40;99.90;;;;;;7381449;19;20374;-71
2023/12/01 00:05:31;;;;;;;33.95;16.33;;;9.40;99.90;;;;;;7382765;19;20369;-72
2023/12/01 00:08:00;;;;;;;40.35;17.15;;;9.40;99.90;;;;;;7383744;19;20006;-72
2023/12/01 00:10:28;;;;;;;34.30;16.70;;;9.40;99.90;;;;;;7382884;19;20369;-71
2023/12/01 00:12:57;;;;;;;31.77;16.88;;;9.40;99.90;;;;;;7381747;19;20003;-71
2023/12/01 00:15:28;;;;;;;30.55;16.95;;;9.40;99.90;;;;;;7405394;19;20586;-72
2023/12/01 00:17:59;;;;;;;39.03;18.65;;;9.30;99.90;;;;;;7382388;19;20006;-71
2023/12/01 00:20:28;;;;;;;33.22;17.92;;;9.30;99.90;;;;;;7382635;19;20007;-71
2023/12/01 00:22:58;;;;;;;36.85;17.63;;;9.20;99.90;;;;;;7380614;19;20010;-72
2023/12/01 00:25:27;;;;;;;39.92;18.40;;;9.20;99.90;;;;;;7382809;19;20086;-72
2023/12/01 00:27:56;;;;;;;37.88;16.83;;;9.30;99.90;;;;;;7382540;19;20013;-72
2023/12/01 00:30:29;;;;;;;37.90;18.00;;;9.30;99.90;;;;;;7404706;19;20011;-72
2023/12/01 00:32:57;;;;;;;35.28;18.27;;;9.30;99.90;;;;;;7381617;19;20219;-71
2023/12/01 00:35:26;;;;;;;40.88;19.65;;;9.30;99.90;;;;;;7381760;19;20007;-71
2023/12/01 00:37:57;;;;;;;33.55;18.02;;;9.30;99.90;;;;;;7382068;19;20105;-72
2023/12/01 00:40:26;;;;;;;44.63;18.38;;;9.30;99.90;;;;;;7381875;19;20072;-71
2023/12/01 00:42:54;;;;;;;34.75;18.63;;;9.30;99.90;;;;;;7380989;19;20062;-71
2023/12/01 00:45:23;;;;;;;41.00;19.10;;;9.30;99.90;;;;;;7403652;19;20071;-72
2023/12/01 00:47:55;;;;;;;37.05;18.30;;;9.30;99.90;;;;;;7383854;19;20070;-72
2023/12/01 00:50:24;;;;;;;38.90;19.63;;;9.30;99.90;;;;;;7382173;19;20017;-72
2023/12/01 00:52:53;;;;;;;47.63;19.23;;;9.20;99.90;;;;;;7381058;19;20007;-71
2023/12/01 00:55:22;;;;;;;42.88;20.40;;;9.20;99.90;;;;;;7381909;19;20002;-72
2023/12/01 00:57:53;;;;;;;40.97;19.98;;;9.00;99.90;;;;;;7406247;19;20011;-73
2023/12/01 01:00:22;;;;;;;40.83;21.35;;;9.10;99.90;;;;;;7385595;19;20035;-72
2023/12/01 01:02:54;;;;;;;38.17;19.23;;;9.10;99.90;;;;;;7384232;19;20441;-73
2023/12/01 01:05:22;;;;;;;;;;;9.10;99.90;;;;;;7386012;19;20358;-72
2023/12/01 01:07:51;;;;;;;49.90;19.02;;;9.10;99.90;;;;;;7385993;19;19914;-71
2023/12/01 01:10:19;;;;;;;42.83;19.65;;;9.10;99.90;;;;;;7383023;19;20381;-71
2023/12/01 01:12:48;;;;;;;37.60;18.63;;;9.10;99.90;;;;;;7405850;19;20015;-71
2023/12/01 01:15:17;;;;;;;45.75;19.92;;;9.10;99.90;;;;;;7380376;19;19999;-72
2023/12/01 01:17:46;;;;;;;46.40;20.90;;;9.10;99.90;;;;;;7380541;19;20009;-72
2023/12/01 06:07:41;;;;;;;57.45;24.80;;;8.60;99.90;;;;;;7374792;19;20003;-71
2023/12/01 06:10:11;;;;;;;50.47;24.02;;;8.60;99.90;;;;;;7377938;19;20015;-71
2023/12/01 06:12:42;;;;;;;47.40;23.10;;;8.70;99.90;;;;;;7400668;19;20026;-71
2023/12/01 06:15:12;;;;;;;61.28;24.58;;;8.70;99.90;;;;;;7378430;19;20003;-72
2023/12/01 06:17:42;;;;;;;58.27;23.77;;;8.70;99.90;;;;;;7378550;19;20032;-72
2023/12/01 06:20:17;;;;;;;48.63;23.17;;;8.70;99.90;;;;;;7379144;19;20243;-72
2023/12/01 06:22:49;;;;;;;52.25;23.17;;;8.60;99.90;;;;;;7379017;19;20003;-71
2023/12/01 06:25:19;;;;;;;53.30;24.30;;;8.60;99.90;;;;;;7378734;19;20374;-73
2023/12/01 06:27:47;;;;;;;50.15;22.45;;;8.60;99.90;;;;;;7399801;19;20027;-72
2023/12/01 06:30:17;;;;;;;55.88;23.95;;;8.70;99.90;;;;;;7378334;19;19999;-72
2023/12/01 06:32:48;;;;;;;49.08;24.73;;;8.70;99.90;;;;;;7377921;19;20010;-72
2023/12/01 06:35:18;;;;;;;50.72;24.35;;;8.60;99.90;;;;;;7378423;19;20003;-72
2023/12/01 06:37:50;;;;;;;56.75;24.85;;;8.70;99.90;;;;;;7378194;19;20010;-71
2023/12/01 06:40:20;;;;;;;55.20;26.55;;;8.70;99.90;;;;;;7378807;19;20007;-72
2023/12/01 06:42:50;;;;;;;60.92;25.90;;;8.80;99.90;;;;;;7400363;19;20024;-71
2023/12/01 06:45:20;;;;;;;58.30;25.33;;;8.80;99.90;;;;;;7377747;19;20058;-71
2023/12/01 06:47:50;;;;;;;58.42;26.38;;;8.80;99.90;;;;;;7379634;19;20024;-72
2023/12/01 06:50:21;;;;;;;60.00;27.60;;;8.80;99.90;;;;;;7378274;19;20040;-72
2023/12/01 06:52:54;;;;;;;;;;;8.80;99.90;;;;;;7378821;19;20002;-72
2023/12/01 06:55:24;;;;;;;57.55;25.27;;;8.80;99.90;;;;;;7379549;19;19907;-71
2023/12/01 06:57:53;;;;;;;81.15;26.55;;;8.80;99.90;;;;;;7386140;19;20019;-71
2023/12/01 07:00:33;;;;;;;60.65;26.60;;;8.70;99.90;;;;;;7399429;19;20027;-72
2023/12/01 07:03:03;;;;;;;72.75;28.80;;;8.80;99.90;;;;;;7376428;19;20003;-72
2023/12/01 07:05:34;;;;;;;60.42;27.05;;;8.80;99.90;;;;;;7377186;19;20265;-71
2023/12/01 07:08:06;;;;;;;70.18;27.27;;;8.80;99.90;;;;;;7377417;19;20002;-72
2023/12/01 07:10:35;;;;;;;63.55;27.73;;;8.70;99.90;;;;;;7378446;19;20011;-72
2023/12/01 07:13:05;;;;;;;63.83;27.42;;;8.70;99.90;;;;;;7377426;19;20075;-72
2023/12/01 07:15:34;;;;;;;66.82;29.75;;;8.80;99.90;;;;;;7398866;19;20006;-73
2023/12/01 07:18:04;;;;;;;68.57;28.00;;;8.80;99.90;;;;;;7377254;19;20054;-72
2023/12/01 07:20:33;;;;;;;65.35;26.38;;;8.80;99.90;;;;;;7377595;19;20009;-72
2023/12/01 07:23:05;;;;;;;63.03;26.15;;;8.80;99.90;;;;;;7380935;19;20003;-72
2023/12/01 07:25:34;;;;;;;64.72;27.80;;;8.90;99.90;;;;;;7384906;19;20010;-72
2023/12/01 07:28:02;;;;;;;60.80;27.45;;;8.90;99.90;;;;;;7384534;19;20011;-72
2023/12/01 07:30:31;;;;;;;56.05;27.20;;;8.90;99.90;;;;;;7405738;19;20011;-72
2023/12/01 07:33:01;;;;;;;62.10;27.40;;;8.90;99.90;;;;;;7384299;19;20020;-72
2023/12/01 07:35:30;;;;;;;67.93;28.40;;;8.90;99.90;;;;;;7384622;19;20366;-72
2023/12/01 07:37:59;;;;;;;61.08;27.30;;;8.90;99.90;;;;;;7384513;19;20007;-72
2023/12/01 07:40:32;;;;;;;63.40;29.40;;;8.90;99.90;;;;;;7384502;19;20024;-72
2023/12/01 07:43:00;;;;;;;68.47;28.77;;;8.90;99.90;;;;;;7384047;19;20022;-72
2023/12/01 07:45:29;;;;;;;62.75;27.55;;;8.90;99.90;;;;;;7406415;19;20430;-72
2023/12/01 07:47:58;;;;;;;70.15;28.65;;;8.90;99.90;;;;;;7383580;19;20062;-72
2023/12/01 07:50:28;;;;;;;66.57;28.30;;;8.80;99.90;;;;;;7384449;19;19999;-72
2023/12/01 07:52:56;;;;;;;65.47;27.58;;;8.80;99.90;;;;;;7388111;19;20026;-72
2023/12/01 07:55:26;;;;;;;63.88;27.52;;;8.80;99.90;;;;;;7389168;19;20003;-72
2023/12/01 07:57:58;;;;;;;59.92;27.58;;;8.80;99.90;;;;;;7388021;19;20003;-72
2023/12/01 08:00:27;;;;;;;66.28;27.88;;;8.80;99.90;;;;;;7410743;19;20007;-72
2023/12/01 08:02:57;;;;;;;63.15;26.70;;;8.80;99.90;;;;;;7388270;19;20011;-75
2023/12/01 08:05:26;;;;;;;55.72;27.05;;;8.80;99.90;;;;;;7384846;19;20006;-74
2023/12/01 08:07:56;;;;;;;63.25;27.20;;;8.90;99.90;;;;;;7383174;19;20030;-75
2023/12/01 08:10:27;;;;;;;64.35;26.73;;;8.90;99.90;;;;;;7383816;19;20003;-75
2023/12/01 08:12:59;;;;;;;62.17;28.85;;;8.90;99.90;;;;;;7386487;19;20013;-76
2023/12/01 08:15:27;;;;;;;;;;;9.00;99.90;;;;;;7406091;19;20027;-71
2023/12/01 08:17:59;;;;;;;68.22;29.92;;;9.00;99.90;;;;;;7384562;19;19911;-74
2023/12/01 08:20:29;;;;;;;58.92;27.67;;;9.00;99.90;;;;;;7385771;19;20070;-75
2023/12/01 08:23:03;;;;;;;68.10;30.73;;;9.10;99.90;;;;;;7385111;19;20086;-76
2023/12/01 08:25:32;;;;;;;72.55;29.08;;;9.00;99.90;;;;;;7383304;19;20010;-75
2023/12/01 08:28:03;;;;;;;78.70;30.83;;;9.00;99.90;;;;;;7383063;19;20007;-76
2023/12/01 08:30:35;;;;;;;58.25;26.80;;;9.00;99.90;;;;;;7404236;19;20331;-75
2023/12/01 08:33:04;;;;;;;63.47;28.27;;;9.00;99.90;;;;;;7382179;19;20024;-76
2023/12/01 08:35:32;;;;;;;67.55;27.30;;;9.00;99.90;;;;;;7385811;19;20011;-77
2023/12/01 08:38:03;;;;;;;64.63;29.35;;;9.00;99.90;;;;;;7383268;19;20476;-77
2023/12/01 08:40:32;;;;;;;81.30;30.13;;;9.00;99.90;;;;;;7382679;19;20418;-77
2023/12/01 08:43:05;;;;;;;64.38;28.75;;;9.00;99.90;;;;;;7384000;19;20028;-75
2023/12/01 08:45:38;;;;;;;67.75;28.58;;;9.00;99.90;;;;;;7404010;19;20011;-77
2023/12/01 08:48:22;;;;;;;65.97;29.35;;;8.90;99.90;;;;;;7386995;19;20732;-80
2023/12/01 08:51:14;;;;;;;72.55;27.02;;;9.00;99.90;;;;;;7388249;19;20018;-80
2023/12/01 08:53:43;;;;;;;62.17;27.10;;;9.00;99.90;;;;;;7384413;19;20002;-79
2023/12/01 08:56:13;;;;;;;59.47;24.80;;;9.00;99.90;;;;;;7382967;19;20006;-76
2023/12/01 09:02:25;;;;;;;64.18;26.48;;;9.00;99.90;;;;;;7381323;19;20014;-79
2023/12/01 09:04:54;;;;;;;53.88;25.08;;;9.00;99.90;;;;;;7387446;19;20035;-79
2023/12/01 09:07:43;;;;;;;61.08;25.90;;;9.10;99.90;;;;;;7386214;19;20072;-79
2023/12/01 09:10:13;;;;;;;59.20;25.40;;;9.10;99.90;;;;;;7384514;19;20019;-79
2023/12/01 09:12:47;;;;;;;47.33;23.85;;;9.10;99.90;;;;;;7405422;19;20372;-79
2023/12/01 09:15:17;;;;;;;56.40;24.50;;;9.20;99.90;;;;;;7387776;19;20006;-79
2023/12/01 09:17:51;;;;;;;75.75;26.67;;;9.20;99.90;;;;;;7387446;19;20364;-79
2023/12/01 09:20:30;;;;;;;61.72;27.13;;;9.20;99.90;;;;;;7386530;19;20031;-78
2023/12/01 09:22:59;;;;;;;55.13;25.60;;;9.20;99.90;;;;;;7383315;19;20062;-74
2023/12/01 09:25:28;;;;;;;80.72;32.08;;;9.30;99.90;;;;;;7381239;19;20010;-75
2023/12/01 09:27:56;;;;;;;68.53;30.65;;;9.30;99.90;;;;;;7383573;19;20413;-72
2023/12/01 09:30:28;;;;;;;58.60;27.40;;;9.30;99.90;;;;;;7403604;19;20032;-73
2023/12/01 09:33:05;;;;;;;64.78;27.63;;;9.30;99.90;;;;;;7384686;19;20003;-77
2023/12/01 09:35:34;;;;;;;74.10;26.10;;;9.40;99.90;;;;;;7384203;19;20010;-75
2023/12/01 09:38:04;;;;;;;75.82;29.05;;;9.40;99.90;;;;;;7382495;19;20007;-75
2023/12/01 09:40:35;;;;;;;69.60;26.40;;;9.40;99.90;;;;;;7382168;19;20397;-78
2023/12/01 09:43:04;;;;;;;63.22;26.42;;;9.40;99.90;;;;;;7379898;19;20014;-73
2023/12/01 09:45:33;;;;;;;58.08;26.20;;;9.40;99.90;;;;;;7398606;19;20083;-74
2023/12/01 09:48:16;;;;;;;60.90;26.95;;;9.40;99.90;;;;;;7380514;19;20006;-78
2023/12/01 09:50:45;;;;;;;73.78;25.63;;;9.40;99.90;;;;;;7381801;19;20006;-76
2023/12/01 09:53:15;;;;;;;57.67;26.65;;;9.40;99.90;;;;;;7380570;19;20023;-76
2023/12/01 09:55:56;;;;;;;51.92;24.48;;;9.30;99.90;;;;;;7380427;19;20399;-79
2023/12/01 09:58:26;;;;;;;;;;;9.30;99.90;;;;;;7381495;19;20006;-77
2023/12/01 10:00:56;;;;;;;61.92;26.15;;;9.30;99.90;;;;;;7378322;19;19937;-74
2023/12/01 10:03:27;;;;;;;65.45;28.00;;;9.30;99.90;;;;;;7403984;19;20010;-74
2023/12/01 10:05:58;;;;;;;64.53;27.17;;;9.00;99.90;;;;;;7382284;19;20006;-75
2023/12/01 10:08:27;;;;;;;66.43;27.83;;;8.90;99.90;;;;;;7379586;19;20023;-74
2023/12/01 10:10:58;;;;;;;61.45;27.08;;;8.90;99.90;;;;;;7381739;19;20007;-75
2023/12/01 10:13:28;;;;;;;57.33;28.33;;;9.00;99.90;;;;;;7383207;19;20010;-76
2023/12/01 10:16:01;;;;;;;69.25;28.55;;;9.00;99.90;;;;;;7384478;19;20035;-76
2023/12/01 10:18:32;;;;;;;64.22;27.58;;;9.10;99.90;;;;;;7408857;19;20011;-74
2023/12/01 10:21:07;;;;;;;60.67;28.60;;;9.20;99.90;;;;;;7390439;19;20264;-76
2023/12/01 10:23:36;;;;;;;62.47;27.27;;;9.00;99.90;;;;;;7391798;19;20013;-77
2023/12/01 10:26:07;;;;;;;63.20;28.10;;;9.00;99.90;;;;;;7389334;19;19999;-77
2023/12/01 10:28:41;;;;;;;71.85;29.50;;;8.90;99.90;;;;;;7380782;19;20003;-76
2023/12/01 10:31:10;;;;;;;77.53;30.15;;;9.00;99.90;;;;;;7377812;19;20233;-74
2023/12/01 10:33:42;;;;;;;69.30;29.85;;;8.90;99.90;;;;;;7398605;19;20021;-74
2023/12/01 10:36:13;;;;;;;66.05;28.42;;;8.80;99.90;;;;;;7384002;19;20027;-77
2023/12/01 10:38:44;;;;;;;68.88;29.05;;;8.90;99.90;;;;;;7380643;19;20541;-76
2023/12/01 10:41:14;;;;;;;73.55;28.65;;;8.90;99.90;;;;;;7383994;19;20011;-77
2023/12/01 10:43:48;;;;;;;76.35;31.40;;;9.00;99.90;;;;;;7382521;19;20032;-78
2023/12/01 10:46:17;;;;;;;82.88;29.63;;;9.00;99.90;;;;;;7378607;19;20097;-74
2023/12/01 10:48:49;;;;;;;66.95;30.27;;;9.00;99.90;;;;;;7401488;19;20051;-74
2023/12/01 10:51:16;;;;;;;71.65;30.58;;;9.10;99.90;;;;;;7382284;19;20066;-74
2023/12/01 10:53:46;;;;;;;78.68;32.20;;;8.80;99.90;;;;;;7378429;19;20010;-74
2023/12/01 10:56:19;;;;;;;72.28;29.65;;;8.90;99.90;;;;;;7379943;19;20241;-75
2023/12/01 10:58:55;;;;;;;63.75;27.77;;;8.90;99.90;;;;;;7384672;19;20014;-74
2023/12/01 11:01:27;;;;;;;70.20;29.20;;;8.80;99.90;;;;;;7384589;19;20006;-73
2023/12/01 11:04:03;;;;;;;73.05;30.75;;;8.70;99.90;;;;;;7385755;19;20043;-73
2023/12/01 11:06:52;;;;;;;70.10;30.95;;;8.70;99.90;;;;;;7406690;19;20066;-75
2023/12/01 11:09:30;;;;;;;77.75;32.85;;;8.80;99.90;;;;;;7384772;19;20110;-72
2023/12/01 11:12:05;;;;;;;80.97;37.90;;;8.80;99.90;;;;;;7385212;19;20074;-74
2023/12/01 11:14:38;;;;;;;78.75;36.75;;;8.80;99.90;;;;;;7386122;19;20024;-71
2023/12/01 11:17:07;;;;;;;67.43;30.38;;;8.70;99.90;;;;;;7385670;19;20007;-71
2023/12/01 11:19:42;;;;;;;71.95;29.50;;;8.80;99.90;;;;;;7385973;19;20011;-70
2023/12/01 11:22:27;;;;;;;68.68;31.08;;;8.80;99.90;;;;;;7384952;19;20269;-71
2023/12/01 11:24:58;;;;;;;72.00;29.88;;;8.70;99.90;;;;;;7383722;19;20075;-72
2023/12/01 11:27:28;;;;;;;70.88;27.95;;;8.60;99.90;;;;;;7406655;19;20067;-72
2023/12/01 11:30:06;;;;;;;51.63;24.08;;;8.50;99.90;;;;;;7384280;19;20270;-72
2023/12/01 11:32:36;;;;;;;64.63;27.75;;;8.50;99.90;;;;;;7384411;19;20246;-73
2023/12/01 11:35:13;;;;;;;74.63;27.92;;;8.60;99.90;;;;;;7384336;19;20410;-71
2023/12/01 11:38:03;;;;;;;53.75;24.30;;;8.50;99.90;;;;;;7384497;19;20442;-73
2023/12/01 11:40:42;;;;;;;59.72;22.77;;;8.50;99.90;;;;;;7383824;19;20039;-71
2023/12/01 11:43:11;;;;;;;63.03;25.23;;;8.60;99.90;;;;;;7384106;19;20269;-71
2023/12/01 11:45:41;;;;;;;63.17;27.38;;;8.50;99.90;;;;;;7403973;19;20238;-74
2023/12/01 11:48:10;;;;;;;65.00;27.63;;;8.50;99.90;;;;;;7384206;19;20015;-75
2023/12/01 11:50:42;;;;;;;70.97;30.42;;;8.50;99.90;;;;;;7383790;19;20002;-72
2023/12/01 11:53:17;;;;;;;74.30;30.00;;;8.40;99.90;;;;;;7383922;19;20010;-71
2023/12/01 11:55:46;;;;;;;66.68;29.08;;;8.40;99.90;;;;;;7384448;19;20013;-71
2023/12/01 11:58:18;;;;;;;60.22;28.40;;;8.40;99.90;;;;;;7382810;19;20014;-72
2023/12/01 12:00:47;;;;;;;59.42;27.25;;;8.20;99.90;;;;;;7408770;19;20010;-72
2023/12/01 12:03:22;;;;;;;61.58;25.83;;;8.10;99.90;;;;;;7383177;19;20074;-71
2023/12/01 12:05:55;;;;;;;64.60;26.48;;;7.70;99.90;;;;;;7381465;19;20372;-71
2023/12/01 12:08:26;;;;;;;61.50;25.05;;;7.90;99.90;;;;;;7381246;19;20013;-72
2023/12/01 12:10:55;;;;;;;55.38;25.08;;;7.90;99.90;;;;;;7384171;19;20054;-72
2023/12/01 12:13:24;;;;;;;73.15;28.27;;;7.90;99.90;;;;;;7383519;19;20003;-72
2023/12/01 12:15:53;;;;;;;59.08;25.27;;;8.00;99.90;;;;;;7392074;19;20013;-72
2023/12/01 12:18:24;;;;;;;62.85;26.60;;;8.00;99.90;;;;;;7404743;19;20007;-72
2023/12/01 12:20:56;;;;;;;67.40;26.85;;;8.20;99.90;;;;;;7382354;19;20023;-73
2023/12/01 12:23:25;;;;;;;59.70;25.73;;;8.10;99.90;;;;;;7383114;19;20039;-72
2023/12/01 12:25:54;;;;;;;64.35;23.92;;;8.10;99.90;;;;;;7382263;19;20010;-72
2023/12/01 12:28:22;;;;;;;60.47;27.25;;;8.10;99.90;;;;;;7386117;19;19998;-72
2023/12/01 12:30:51;;;;;;;57.50;25.90;;;7.80;99.90;;;;;;7405842;19;20007;-71
2023/12/01 12:33:20;;;;;;;60.92;25.25;;;7.80;99.90;;;;;;7384394;19;20007;-71
2023/12/01 12:35:49;;;;;;;62.92;25.42;;;7.90;99.90;;;;;;7382055;19;20023;-72
2023/12/01 12:38:21;;;;;;;61.38;26.48;;;8.10;99.90;;;;;;7384765;19;20017;-72
2023/12/01 12:40:49;;;;;;;52.72;22.92;;;8.20;99.90;;;;;;7387766;19;20030;-72
2023/12/01 12:43:20;;;;;;;56.55;24.30;;;8.10;99.90;;;;;;7387218;19;19999;-71
2023/12/01 12:45:51;;;;;;;59.80;25.00;;;8.10;99.90;;;;;;7407050;19;20040;-71
2023/12/01 12:48:19;;;;;;;229.48;31.27;;;8.00;99.90;;;;;;7386165;19;20002;-71
2023/12/01 12:50:49;;;;;;;69.25;24.42;;;8.10;99.90;;;;;;7387370;19;20070;-72
2023/12/01 12:53:20;;;;;;;59.10;23.92;;;8.00;99.90;;;;;;7384788;19;20058;-72
2023/12/01 12:55:49;;;;;;;54.05;22.35;;;8.10;99.90;;;;;;7384502;19;20023;-72
2023/12/01 12:58:18;;;;;;;52.47;24.00;;;7.90;99.90;;;;;;7382147;19;20019;-72
2023/12/01 13:00:46;;;;;;;57.53;24.17;;;7.90;99.90;;;;;;7403588;19;20013;-72
2023/12/01 13:03:16;;;;;;;56.78;24.33;;;8.00;99.90;;;;;;7381240;19;20007;-72
2023/12/01 13:05:44;;;;;;;48.50;20.58;;;8.10;99.90;;;;;;7380376;19;20003;-71
2023/12/01 13:08:13;;;;;;;84.60;24.45;;;7.80;99.90;;;;;;7381755;19;20062;-72
2023/12/01 13:10:44;;;;;;;53.97;22.92;;;7.80;99.90;;;;;;7381540;19;20042;-73
2023/12/01 13:13:13;;;;;;;57.45;23.40;;;7.90;99.90;;;;;;7381873;19;20107;-72
2023/12/01 13:15:43;;;;;;;53.88;23.55;;;8.10;99.90;;;;;;7402919;19;20074;-71
2023/12/01 13:18:11;;;;;;;61.20;22.25;;;8.20;99.90;;;;;;7380805;19;20013;-71
2023/12/01 13:20:40;;;;;;;57.88;22.92;;;8.20;99.90;;;;;;7378507;19;20011;-71
2023/12/01 13:23:11;;;;;;;50.95;21.55;;;8.20;99.90;;;;;;7382311;19;20400;-72
2023/12/01 13:25:40;;;;;;;51.53;21.88;;;8.30;99.90;;;;;;7383937;19;20003;-72
2023/12/01 13:28:12;;;;;;;50.15;20.63;;;8.40;99.90;;;;;;7381702;19;20006;-72
2023/12/01 13:30:41;;;;;;;49.88;20.50;;;8.40;99.90;;;;;;7403151;19;20009;-71
2023/12/01 13:33:10;;;;;;;65.88;22.35;;;8.50;99.90;;;;;;7379907;19;20018;-72
2023/12/01 13:35:39;;;;;;;51.92;21.40;;;8.40;99.90;;;;;;7380337;19;20028;-71
2023/12/01 13:38:10;;;;;;;55.33;21.27;;;8.30;99.90;;;;;;7381058;19;20079;-72
2023/12/01 13:40:40;;;;;;;43.65;19.38;;;8.20;99.90;;;;;;7380984;19;20460;-72
2023/12/01 13:43:11;;;;;;;49.92;19.92;;;8.10;99.90;;;;;;7380675;19;20002;-71
2023/12/01 13:45:40;;;;;;;;;;;8.20;99.90;;;;;;7402450;19;20027;-72
2023/12/01 13:48:09;;;;;;;47.83;18.00;;;7.90;99.90;;;;;;7380129;19;19964;-71
2023/12/01 13:50:38;;;;;;;39.67;17.63;;;7.80;99.90;;;;;;7379677;19;20006;-72
2023/12/01 13:53:09;;;;;;;42.72;19.60;;;7.80;99.90;;;;;;7383178;19;20009;-72
2023/12/01 13:55:40;;;;;;;41.38;19.48;;;7.90;99.90;;;;;;7380146;19;20062;-71
2023/12/01 13:58:11;;;;;;;54.27;20.20;;;8.10;99.90;;;;;;7380974;19;20079;-72
2023/12/01 14:00:40;;;;;;;48.28;19.02;;;8.10;99.90;;;;;;7401466;19;20014;-72
2023/12/01 14:03:09;;;;;;;40.05;19.70;;;8.00;99.90;;;;;;7379363;19;20126;-72
2023/12/01 14:05:37;;;;;;;39.10;18.35;;;8.10;99.90;;;;;;7378656;19;20071;-72
2023/12/01 14:08:09;;;;;;;52.95;19.98;;;8.20;99.90;;;;;;7379083;19;20066;-72
2023/12/01 14:10:38;;;;;;;55.50;20.42;;;8.20;99.90;;;;;;7380004;19;20028;-72
2023/12/01 14:13:07;;;;;;;49.55;19.27;;;8.30;99.90;;;;;;7379919;19;20019;-72
2023/12/01 14:15:38;;;;;;;46.78;19.20;;;8.30;99.90;;;;;;7402801;19;20107;-73
2023/12/01 14:18:07;;;;;;;48.08;19.38;;;8.40;99.90;;;;;;7378801;19;20006;-72
2023/12/01 14:20:36;;;;;;;44.42;19.27;;;8.40;99.90;;;;;;7379484;19;20110;-72
2023/12/01 14:23:05;;;;;;;41.47;15.85;;;8.50;99.90;;;;;;7379827;19;20086;-72
2023/12/01 14:25:33;;;;;;;52.42;19.08;;;8.40;99.90;;;;;;7379238;19;20078;-72
2023/12/01 14:28:02;;;;;;;50.05;20.90;;;8.40;99.90;;;;;;7378567;19;20014;-72
2023/12/01 14:30:31;;;;;;;45.78;18.67;;;8.00;99.90;;;;;;7407510;19;20024;-74
2023/12/01 14:33:02;;;;;;;43.10;18.55;;;8.20;99.90;;;;;;7385288;19;20650;-74
2023/12/01 14:35:30;;;;;;;;;;;8.10;99.90;;;;;;7385098;19;20006;-74
2023/12/01 14:38:02;;;;;;;38.10;17.50;;;8.20;99.90;;;;;;7383750;19;19906;-74
2023/12/01 14:40:31;;;;;;;38.85;15.98;;;8.20;99.90;;;;;;7382577;19;20066;-75
2023/12/01 14:43:03;;;;;;;39.35;18.40;;;7.90;99.90;;;;;;7384024;19;20011;-74
2023/12/01 14:45:32;;;;;;;42.63;19.27;;;7.90;99.90;;;;;;7406857;19;20075;-74
2023/12/01 14:48:03;;;;;;;45.35;18.60;;;8.00;99.90;;;;;;7383037;19;19999;-74
2023/12/01 14:50:32;;;;;;;46.45;18.30;;;8.10;99.90;;;;;;7383061;19;20066;-74
2023/12/01 14:53:00;;;;;;;40.58;17.55;;;8.10;99.90;;;;;;7383229;19;20019;-74
2023/12/01 14:55:30;;;;;;;34.42;17.35;;;8.10;99.90;;;;;;7383131;19;20070;-74
2023/12/01 14:58:02;;;;;;;37.58;17.30;;;8.10;99.90;;;;;;7383879;19;20422;-74
2023/12/01 15:00:31;;;;;;;40.67;18.08;;;8.10;99.90;;;;;;7408280;19;20007;-74
2023/12/01 15:02:59;;;;;;;38.53;17.88;;;8.10;99.90;;;;;;7387181;19;20003;-73
2023/12/01 15:05:30;;;;;;;38.50;18.25;;;8.00;99.90;;;;;;7389758;19;20018;-74
2023/12/01 15:08:00;;;;;;;36.38;18.02;;;8.00;99.90;;;;;;7388379;19;20007;-74
2023/12/01 15:10:28;;;;;;;48.75;18.90;;;8.00;99.90;;;;;;7391699;19;20378;-73
2023/12/01 15:12:57;;;;;;;32.00;17.35;;;8.10;99.90;;;;;;7390849;19;20038;-73
2023/12/01 15:15:28;;;;;;;42.45;17.50;;;8.00;99.90;;;;;;7410487;19;20365;-73
2023/12/01 15:17:57;;;;;;;37.42;17.38;;;8.10;99.90;;;;;;7384350;19;20074;-74
2023/12/01 15:20:25;;;;;;;41.60;18.58;;;8.00;99.90;;;;;;7384447;19;20007;-73
2023/12/01 15:22:57;;;;;;;37.90;18.83;;;8.00;99.90;;;;;;7383404;19;20009;-74
2023/12/01 15:25:26;;;;;;;38.42;18.20;;;7.90;99.90;;;;;;7383889;19;20033;-73
2023/12/01 15:27:54;;;;;;;38.47;17.92;;;8.00;99.90;;;;;;7381554;19;20007;-72
2023/12/01 15:30:23;;;;;;;32.72;16.80;;;7.90;99.90;;;;;;7404169;19;20370;-73
2023/12/01 15:32:54;;;;;;;34.30;16.27;;;8.00;99.90;;;;;;7382037;19;20011;-74
2023/12/01 15:35:23;;;;;;;44.95;17.20;;;8.00;99.90;;;;;;7382730;19;20031;-73
2023/12/01 15:37:52;;;;;;;40.20;17.48;;;7.80;99.90;;;;;;7383759;19;20023;-73
2023/12/01 15:40:23;;;;;;;38.50;17.42;;;7.80;99.90;;;;;;7382979;19;20003;-73
2023/12/01 15:42:51;;;;;;;37.08;16.92;;;7.70;99.90;;;;;;7403208;19;20022;-73
2023/12/01 15:45:20;;;;;;;38.53;18.02;;;7.50;99.90;;;;;;7389266;19;20020;-74
2023/12/01 15:47:49;;;;;;;52.00;20.08;;;7.60;99.90;;;;;;7388101;19;20023;-73
2023/12/01 15:50:18;;;;;;;42.25;17.98;;;7.50;99.90;;;;;;7390213;19;20035;-74
2023/12/01 15:52:46;;;;;;;44.90;18.50;;;7.50;99.90;;;;;;7390216;19;20062;-74
2023/12/01 15:55:15;;;;;;;32.97;16.70;;;7.50;99.90;;;;;;7388985;19;20015;-73
2023/12/01 15:57:47;;;;;;;35.50;17.17;;;7.50;99.90;;;;;;7411263;19;20078;-73
2023/12/01 16:00:16;;;;;;;42.25;18.33;;;7.50;99.90;;;;;;7391420;19;20014;-74
2023/12/01 16:02:45;;;;;;;47.28;17.13;;;7.50;99.90;;;;;;7388295;19;20070;-74
2023/12/01 16:05:13;;;;;;;38.40;17.88;;;7.30;99.90;;;;;;7387320;19;20082;-74
2023/12/01 16:07:42;;;;;;;41.30;16.55;;;7.30;99.90;;;;;;7387095;19;20060;-74
2023/12/01 16:10:11;;;;;;;34.40;16.38;;;7.20;99.90;;;;;;7389092;19;20006;-74
2023/12/01 16:12:40;;;;;;;34.58;16.58;;;7.00;99.90;;;;;;7411073;19;20018;-75
2023/12/01 16:15:14;;;;;;;37.10;17.23;;;6.80;99.90;;;;;;7388163;19;20003;-74
2023/12/01 16:17:46;;;;;;;40.13;14.57;;;6.90;99.90;;;;;;7388976;19;20015;-74
2023/12/01 16:20:15;;;;;;;38.65;16.38;;;6.60;99.90;;;;;;7387703;19;20017;-73
2023/12/01 16:22:44;;;;;;;43.92;17.55;;;6.50;99.90;;;;;;7389675;19;20010;-75
2023/12/01 16:25:14;;;;;;;50.15;17.80;;;6.50;99.90;;;;;;7388834;19;20351;-74
2023/12/01 16:27:43;;;;;;;38.75;17.20;;;6.50;99.90;;;;;;7408826;19;20388;-74
2023/12/01 16:30:14;;;;;;;45.50;17.25;;;6.60;99.90;;;;;;7389418;19;20370;-72
2023/12/01 16:32:45;;;;;;;48.15;18.25;;;6.70;99.90;;;;;;7389235;19;20015;-74
2023/12/01 16:35:14;;;;;;;42.53;17.13;;;6.80;99.90;;;;;;7387542;19;20010;-75
2023/12/01 16:37:42;;;;;;;46.42;17.58;;;6.90;99.90;;;;;;7388422;19;20101;-75
2023/12/01 16:40:12;;;;;;;32.22;16.38;;;6.90;99.90;;;;;;7388673;19;20018;-75
2023/12/01 16:42:41;;;;;;;39.83;15.82;;;6.70;99.90;;;;;;7411327;19;20027;-74
2023/12/01 16:45:10;;;;;;;30.25;14.60;;;6.80;99.90;;;;;;7387805;19;20014;-74
2023/12/01 16:47:42;;;;;;;37.53;15.80;;;6.90;99.90;;;;;;7386278;19;20054;-74
2023/12/01 16:50:11;;;;;;;32.85;15.57;;;7.00;99.90;;;;;;7388607;19;20288;-74
2023/12/01 16:52:40;;;;;;;31.98;14.85;;;7.00;99.90;;;;;;7386713;19;20254;-73
2023/12/01 16:55:12;;;;;;;46.38;16.88;;;7.10;99.90;;;;;;7387484;19;20354;-74
2023/12/01 16:57:41;;;;;;;31.58;14.60;;;7.20;99.90;;;;;;7411003;19;20011;-74
2023/12/01 17:00:11;;;;;;;33.78;14.75;;;7.20;99.90;;;;;;7388373;19;20006;-74
2023/12/01 17:02:43;;;;;;;35.45;14.57;;;7.10;99.90;;;;;;7387015;19;20014;-74
2023/12/01 17:05:12;;;;;;;28.13;14.07;;;7.00;99.90;;;;;;7386258;19;20141;-74
2023/12/01 17:07:41;;;;;;;38.97;14.55;;;7.00;99.90;;;;;;7385310;19;20345;-74
2023/12/01 17:10:13;;;;;;;31.73;14.35;;;6.90;99.90;;;;;;7386495;19;20010;-73
2023/12/01 17:12:42;;;;;;;34.08;14.98;;;7.00;99.90;;;;;;7407484;19;20017;-74
2023/12/01 17:15:13;;;;;;;36.28;13.98;;;6.90;99.90;;;;;;7386248;19;20019;-74
2023/12/01 17:17:44;;;;;;;31.40;15.15;;;7.10;99.90;;;;;;7385703;19;20062;-73
2023/12/01 17:20:14;;;;;;;37.95;14.82;;;7.10;99.90;;;;;;7386859;19;20082;-75
2023/12/01 17:22:43;;;;;;;30.88;13.65;;;7.00;99.90;;;;;;7385452;19;20304;-73
2023/12/01 17:25:12;;;;;;;38.25;14.85;;;6.90;99.90;;;;;;7387617;19;20024;-73
2023/12/01 17:27:42;;;;;;;33.15;14.88;;;7.00;99.90;;;;;;7407618;19;20014;-74
2023/12/01 17:30:13;;;;;;;33.28;15.90;;;7.10;99.90;;;;;;7384516;19;20098;-76
2023/12/01 17:32:44;;;;;;;30.60;13.57;;;7.20;99.90;;;;;;7386787;19;20021;-73
2023/12/01 17:35:13;;;;;;;41.33;15.13;;;7.10;99.90;;;;;;7391424;19;20070;-73
2023/12/01 17:37:41;;;;;;;37.55;14.88;;;7.10;99.90;;;;;;7390721;19;20265;-72
2023/12/01 17:40:12;;;;;;;41.80;12.95;;;7.10;99.90;;;;;;7390672;19;20078;-72
2023/12/01 17:42:41;;;;;;;35.65;12.90;;;7.00;99.90;;;;;;7413992;19;20039;-73
2023/12/01 17:45:11;;;;;;;32.83;13.18;;;7.10;99.90;;;;;;7389215;19;20031;-73